sensor_id;sensor_type;location;lat;lon;timestamp;P1;durP1;ratioP1;P2;durP2;ratioP2
1410;SDS011;700;51.906;8.404;2023-04-01T00:04:51;1.73;;;1.03;;
1410;SDS011;700;51.906;8.404;2023-04-01T00:09:52;4.70;;;1.23;;
1410;SDS011;700;51.906;8.404;2023-04-01T00:14:53;1.93;;;0.83;;
1410;SDS011;700;51.906;8.404;2023-04-01T00:19:59;2.10;;;1.10;;
1410;SDS011;700;51.906;8.404;2023-04-01T00:25:02;2.67;;;1.00;;
1410;SDS011;700;51.906;8.404;2023-04-01T00:30:08;3.37;;;1.23;;
1410;SDS011;700;51.906;8.404;2023-04-01T00:35:09;3.30;;;1.10;;
1410;SDS011;700;51.906;8.404;2023-04-01T00:40:21;1.90;;;1.00;;
1410;SDS011;700;51.906;8.404;2023-04-01T00:45:37;2.87;;;1.17;;
1410;SDS011;700;51.906;8.404;2023-04-01T00:50:41;3.00;;;1.00;;
1410;SDS011;700;51.906;8.404;2023-04-01T00:56:00;4.77;;;1.10;;
1410;SDS011;700;51.906;8.404;2023-04-01T01:01:04;2.20;;;0.93;;
1410;SDS011;700;51.906;8.404;2023-04-01T01:06:10;2.50;;;1.00;;
1410;SDS011;700;51.906;8.404;2023-04-01T01:11:11;2.50;;;0.80;;
1410;SDS011;700;51.906;8.404;2023-04-01T01:16:20;2.23;;;1.00;;
1410;SDS011;700;51.906;8.404;2023-04-01T01:27:27;2.10;;;0.70;;
1410;SDS011;700;51.906;8.404;2023-04-01T01:38:05;1.60;;;0.80;;
1410;SDS011;700;51.906;8.404;2023-04-01T01:43:12;1.43;;;0.80;;
1410;SDS011;700;51.906;8.404;2023-04-01T01:48:20;4.70;;;0.90;;
1410;SDS011;700;51.906;8.404;2023-04-01T01:53:22;2.17;;;0.90;;
1410;SDS011;700;51.906;8.404;2023-04-01T02:03:33;2.30;;;0.90;;
1410;SDS011;700;51.906;8.404;2023-04-01T02:08:41;1.67;;;0.90;;
1410;SDS011;700;51.906;8.404;2023-04-01T02:18:55;1.20;;;0.63;;
1410;SDS011;700;51.906;8.404;2023-04-01T02:23:58;1.87;;;1.00;;
1410;SDS011;700;51.906;8.404;2023-04-01T02:29:01;1.10;;;0.60;;
1410;SDS011;700;51.906;8.404;2023-04-01T02:34:04;2.20;;;0.93;;
1410;SDS011;700;51.906;8.404;2023-04-01T02:39:08;1.93;;;0.80;;
1410;SDS011;700;51.906;8.404;2023-04-01T02:44:09;1.43;;;0.70;;
1410;SDS011;700;51.906;8.404;2023-04-01T02:49:13;1.93;;;0.70;;
1410;SDS011;700;51.906;8.404;2023-04-01T02:54:16;1.63;;;0.63;;
1410;SDS011;700;51.906;8.404;2023-04-01T02:59:16;4.10;;;0.80;;
1410;SDS011;700;51.906;8.404;2023-04-01T03:04:18;1.73;;;0.80;;
1410;SDS011;700;51.906;8.404;2023-04-01T03:09:19;2.50;;;0.70;;
1410;SDS011;700;51.906;8.404;2023-04-01T03:14:19;3.00;;;0.70;;
1410;SDS011;700;51.906;8.404;2023-04-01T03:19:22;2.33;;;0.70;;
1410;SDS011;700;51.906;8.404;2023-04-01T03:24:23;1.30;;;0.67;;
1410;SDS011;700;51.906;8.404;2023-04-01T03:29:23;1.70;;;0.80;;
1410;SDS011;700;51.906;8.404;2023-04-01T03:34:27;1.77;;;0.70;;
1410;SDS011;700;51.906;8.404;2023-04-01T03:39:27;1.90;;;0.60;;
1410;SDS011;700;51.906;8.404;2023-04-01T03:44:31;2.43;;;0.60;;
1410;SDS011;700;51.906;8.404;2023-04-01T03:49:35;1.57;;;0.60;;
1410;SDS011;700;51.906;8.404;2023-04-01T03:54:36;1.30;;;0.80;;
1410;SDS011;700;51.906;8.404;2023-04-01T03:59:37;2.20;;;0.70;;
1410;SDS011;700;51.906;8.404;2023-04-01T04:04:38;3.50;;;0.70;;
1410;SDS011;700;51.906;8.404;2023-04-01T04:09:43;3.10;;;1.10;;
1410;SDS011;700;51.906;8.404;2023-04-01T04:14:44;1.10;;;0.60;;
1410;SDS011;700;51.906;8.404;2023-04-01T04:19:45;1.60;;;0.73;;
1410;SDS011;700;51.906;8.404;2023-04-01T04:24:50;2.50;;;0.70;;
1410;SDS011;700;51.906;8.404;2023-04-01T04:29:50;1.43;;;0.70;;
1410;SDS011;700;51.906;8.404;2023-04-01T04:34:54;1.20;;;0.70;;
1410;SDS011;700;51.906;8.404;2023-04-01T04:39:55;1.30;;;0.80;;
1410;SDS011;700;51.906;8.404;2023-04-01T04:44:58;1.30;;;0.80;;
1410;SDS011;700;51.906;8.404;2023-04-01T04:49:58;1.07;;;0.63;;
1410;SDS011;700;51.906;8.404;2023-04-01T04:54:59;2.60;;;0.67;;
1410;SDS011;700;51.906;8.404;2023-04-01T05:00:02;1.47;;;0.60;;
1410;SDS011;700;51.906;8.404;2023-04-01T05:05:04;1.10;;;0.67;;
1410;SDS011;700;51.906;8.404;2023-04-01T05:10:08;1.20;;;0.60;;
1410;SDS011;700;51.906;8.404;2023-04-01T05:15:09;1.00;;;0.60;;
1410;SDS011;700;51.906;8.404;2023-04-01T05:20:13;1.43;;;0.70;;
1410;SDS011;700;51.906;8.404;2023-04-01T05:25:18;1.90;;;0.70;;
1410;SDS011;700;51.906;8.404;2023-04-01T05:30:19;1.00;;;0.60;;
1410;SDS011;700;51.906;8.404;2023-04-01T05:35:20;1.70;;;0.97;;
1410;SDS011;700;51.906;8.404;2023-04-01T05:40:20;1.30;;;0.80;;
1410;SDS011;700;51.906;8.404;2023-04-01T05:45:21;5.23;;;1.33;;
1410;SDS011;700;51.906;8.404;2023-04-01T05:50:22;2.07;;;0.93;;
1410;SDS011;700;51.906;8.404;2023-04-01T05:55:25;1.53;;;0.70;;
1410;SDS011;700;51.906;8.404;2023-04-01T06:00:28;1.10;;;0.70;;
1410;SDS011;700;51.906;8.404;2023-04-01T06:05:37;1.27;;;0.77;;
1410;SDS011;700;51.906;8.404;2023-04-01T06:11:06;1.13;;;0.60;;
1410;SDS011;700;51.906;8.404;2023-04-01T06:21:42;2.30;;;0.80;;
1410;SDS011;700;51.906;8.404;2023-04-01T06:27:34;2.93;;;1.27;;
1410;SDS011;700;51.906;8.404;2023-04-01T06:32:54;1.00;;;0.70;;
1410;SDS011;700;51.906;8.404;2023-04-01T06:38:09;1.30;;;0.70;;
1410;SDS011;700;51.906;8.404;2023-04-01T06:58:37;2.13;;;1.03;;
1410;SDS011;700;51.906;8.404;2023-04-01T07:08:59;1.37;;;0.80;;
1410;SDS011;700;51.906;8.404;2023-04-01T07:14:06;1.20;;;0.80;;
1410;SDS011;700;51.906;8.404;2023-04-01T07:19:50;1.77;;;0.90;;
1410;SDS011;700;51.906;8.404;2023-04-01T07:24:54;1.20;;;0.90;;
1410;SDS011;700;51.906;8.404;2023-04-01T07:29:58;2.10;;;1.30;;
1410;SDS011;700;51.906;8.404;2023-04-01T07:56:17;1.07;;;0.70;;
1410;SDS011;700;51.906;8.404;2023-04-01T08:02:15;1.13;;;0.70;;
1410;SDS011;700;51.906;8.404;2023-04-01T08:07:18;1.30;;;0.90;;
1410;SDS011;700;51.906;8.404;2023-04-01T08:12:33;1.47;;;1.00;;
1410;SDS011;700;51.906;8.404;2023-04-01T08:23:15;3.60;;;1.67;;
1410;SDS011;700;51.906;8.404;2023-04-01T08:28:23;3.20;;;1.47;;
1410;SDS011;700;51.906;8.404;2023-04-01T08:33:36;1.47;;;1.10;;
1410;SDS011;700;51.906;8.404;2023-04-01T08:38:41;2.03;;;1.07;;
1410;SDS011;700;51.906;8.404;2023-04-01T08:54:39;1.73;;;1.00;;
1410;SDS011;700;51.906;8.404;2023-04-01T09:37:34;4.20;;;1.10;;
1410;SDS011;700;51.906;8.404;2023-04-01T09:48:02;3.73;;;1.23;;
1410;SDS011;700;51.906;8.404;2023-04-01T10:20:28;1.20;;;0.90;;
1410;SDS011;700;51.906;8.404;2023-04-01T10:36:55;1.10;;;0.80;;
1410;SDS011;700;51.906;8.404;2023-04-01T10:58:08;2.97;;;1.80;;
1410;SDS011;700;51.906;8.404;2023-04-01T11:29:57;1.77;;;1.37;;
1410;SDS011;700;51.906;8.404;2023-04-01T11:40:44;2.47;;;1.87;;
1410;SDS011;700;51.906;8.404;2023-04-01T11:46:10;3.47;;;1.30;;
1410;SDS011;700;51.906;8.404;2023-04-01T11:51:36;1.60;;;1.20;;
1410;SDS011;700;51.906;8.404;2023-04-01T12:49:51;2.00;;;1.77;;
1410;SDS011;700;51.906;8.404;2023-04-01T13:16:42;2.87;;;2.67;;
1410;SDS011;700;51.906;8.404;2023-04-01T13:27:45;4.47;;;3.30;;
1410;SDS011;700;51.906;8.404;2023-04-01T13:43:32;2.40;;;2.20;;
1410;SDS011;700;51.906;8.404;2023-04-01T13:48:41;3.20;;;2.90;;
1410;SDS011;700;51.906;8.404;2023-04-01T14:15:48;3.40;;;3.10;;
1410;SDS011;700;51.906;8.404;2023-04-01T14:21:14;3.60;;;3.30;;
1410;SDS011;700;51.906;8.404;2023-04-01T14:42:41;4.10;;;3.70;;
1410;SDS011;700;51.906;8.404;2023-04-01T14:48:07;3.83;;;3.47;;
1410;SDS011;700;51.906;8.404;2023-04-01T14:53:28;3.60;;;3.30;;
1410;SDS011;700;51.906;8.404;2023-04-01T14:58:57;2.97;;;2.67;;
1410;SDS011;700;51.906;8.404;2023-04-01T15:25:19;2.83;;;2.60;;
1410;SDS011;700;51.906;8.404;2023-04-01T15:30:50;3.80;;;3.13;;
1410;SDS011;700;51.906;8.404;2023-04-01T15:46:46;3.30;;;3.00;;
1410;SDS011;700;51.906;8.404;2023-04-01T15:57:07;3.03;;;2.83;;
1410;SDS011;700;51.906;8.404;2023-04-01T16:07:56;3.30;;;3.00;;
1410;SDS011;700;51.906;8.404;2023-04-01T16:35:46;2.97;;;2.70;;
1410;SDS011;700;51.906;8.404;2023-04-01T16:45:53;3.03;;;2.73;;
1410;SDS011;700;51.906;8.404;2023-04-01T16:51:14;4.27;;;3.87;;
1410;SDS011;700;51.906;8.404;2023-04-01T16:56:21;4.10;;;3.20;;
1410;SDS011;700;51.906;8.404;2023-04-01T17:01:26;3.43;;;3.13;;
1410;SDS011;700;51.906;8.404;2023-04-01T17:11:39;4.07;;;3.60;;
1410;SDS011;700;51.906;8.404;2023-04-01T17:37:51;4.67;;;4.17;;
1410;SDS011;700;51.906;8.404;2023-04-01T17:43:14;5.60;;;1.73;;
1410;SDS011;700;51.906;8.404;2023-04-01T18:15:40;1.70;;;1.47;;
1410;SDS011;700;51.906;8.404;2023-04-01T18:26:09;2.00;;;1.43;;
1410;SDS011;700;51.906;8.404;2023-04-01T18:31:19;2.77;;;1.00;;
1410;SDS011;700;51.906;8.404;2023-04-01T18:52:24;1.50;;;1.03;;
1410;SDS011;700;51.906;8.404;2023-04-01T18:57:42;1.60;;;1.30;;
1410;SDS011;700;51.906;8.404;2023-04-01T19:08:39;1.73;;;1.27;;
1410;SDS011;700;51.906;8.404;2023-04-01T19:19:16;1.63;;;1.30;;
1410;SDS011;700;51.906;8.404;2023-04-01T19:24:49;2.63;;;1.30;;
1410;SDS011;700;51.906;8.404;2023-04-01T19:30:02;1.67;;;1.23;;
1410;SDS011;700;51.906;8.404;2023-04-01T19:35:39;2.00;;;1.70;;
1410;SDS011;700;51.906;8.404;2023-04-01T19:41:01;2.13;;;1.17;;
1410;SDS011;700;51.906;8.404;2023-04-01T19:46:16;1.80;;;1.10;;
1410;SDS011;700;51.906;8.404;2023-04-01T19:51:43;1.80;;;1.10;;
1410;SDS011;700;51.906;8.404;2023-04-01T20:02:34;1.70;;;1.13;;
1410;SDS011;700;51.906;8.404;2023-04-01T20:07:53;1.57;;;1.20;;
1410;SDS011;700;51.906;8.404;2023-04-01T20:55:51;2.50;;;2.30;;
1410;SDS011;700;51.906;8.404;2023-04-01T21:01:15;2.10;;;1.90;;
1410;SDS011;700;51.906;8.404;2023-04-01T21:12:04;2.30;;;1.10;;
1410;SDS011;700;51.906;8.404;2023-04-01T21:17:36;2.20;;;1.20;;
1410;SDS011;700;51.906;8.404;2023-04-01T21:29:08;1.60;;;1.33;;
1410;SDS011;700;51.906;8.404;2023-04-01T21:50:19;2.00;;;1.80;;
1410;SDS011;700;51.906;8.404;2023-04-01T22:06:55;2.20;;;1.87;;
1410;SDS011;700;51.906;8.404;2023-04-01T22:12:18;2.07;;;1.63;;
1410;SDS011;700;51.906;8.404;2023-04-01T22:23:07;2.30;;;2.10;;
1410;SDS011;700;51.906;8.404;2023-04-01T22:28:20;2.33;;;1.77;;
1410;SDS011;700;51.906;8.404;2023-04-01T22:44:06;2.30;;;2.10;;
1410;SDS011;700;51.906;8.404;2023-04-01T22:54:39;2.57;;;2.07;;
1410;SDS011;700;51.906;8.404;2023-04-01T22:59:48;2.57;;;2.00;;
1410;SDS011;700;51.906;8.404;2023-04-01T23:05:01;2.10;;;1.90;;
1410;SDS011;700;51.906;8.404;2023-04-01T23:10:05;2.00;;;1.80;;
1410;SDS011;700;51.906;8.404;2023-04-01T23:15:15;2.20;;;2.00;;
1410;SDS011;700;51.906;8.404;2023-04-01T23:30:50;2.20;;;1.90;;
1410;SDS011;700;51.906;8.404;2023-04-01T23:35:57;3.60;;;1.80;;
1410;SDS011;700;51.906;8.404;2023-04-01T23:41:05;2.57;;;1.80;;
1410;SDS011;700;51.906;8.404;2023-04-01T23:46:06;1.90;;;1.40;;
1410;SDS011;700;51.906;8.404;2023-04-01T23:51:18;3.23;;;2.07;;
1410;SDS011;700;51.906;8.404;2023-04-01T23:56:38;2.97;;;2.00;;
